sensor_id;sensor_type;location;lat;lon;timestamp;P1;durP1;ratioP1;P2;durP2;ratioP2
23270;SDS011;11804;51.118;17.058;2022-09-09T00:00:28;7.62;;;6.83;;
23270;SDS011;11804;51.118;17.058;2022-09-09T00:08:04;7.95;;;7.05;;
23270;SDS011;11804;51.118;17.058;2022-09-09T00:10:39;9.48;;;7.53;;
23270;SDS011;11804;51.118;17.058;2022-09-09T00:21:26;8.45;;;7.20;;
23270;SDS011;11804;51.118;17.058;2022-09-09T00:23:55;9.60;;;8.03;;
23270;SDS011;11804;51.118;17.058;2022-09-09T00:29:17;11.22;;;7.10;;
23270;SDS011;11804;51.118;17.058;2022-09-09T00:31:50;7.37;;;6.67;;
23270;SDS011;11804;51.118;17.058;2022-09-09T00:34:23;8.33;;;6.45;;
23270;SDS011;11804;51.118;17.058;2022-09-09T00:36:52;6.70;;;6.15;;
23270;SDS011;11804;51.118;17.058;2022-09-09T00:39:37;6.67;;;5.90;;
23270;SDS011;11804;51.118;17.058;2022-09-09T00:42:17;8.35;;;6.50;;
23270;SDS011;11804;51.118;17.058;2022-09-09T00:44:51;7.25;;;6.55;;
23270;SDS011;11804;51.118;17.058;2022-09-09T00:47:40;9.20;;;6.43;;
23270;SDS011;11804;51.118;17.058;2022-09-09T00:53:07;8.78;;;7.08;;
23270;SDS011;11804;51.118;17.058;2022-09-09T00:58:17;6.35;;;5.80;;
23270;SDS011;11804;51.118;17.058;2022-09-09T01:00:46;6.75;;;5.28;;
23270;SDS011;11804;51.118;17.058;2022-09-09T01:03:34;6.35;;;5.85;;
23270;SDS011;11804;51.118;17.058;2022-09-09T01:06:25;7.95;;;5.97;;
23270;SDS011;11804;51.118;17.058;2022-09-09T01:14:43;7.12;;;6.53;;
23270;SDS011;11804;51.118;17.058;2022-09-09T01:17:17;7.25;;;6.60;;
23270;SDS011;11804;51.118;17.058;2022-09-09T01:22:37;9.00;;;6.80;;
23270;SDS011;11804;51.118;17.058;2022-09-09T01:25:15;7.90;;;7.10;;
23270;SDS011;11804;51.118;17.058;2022-09-09T01:27:42;7.53;;;6.90;;
23270;SDS011;11804;51.118;17.058;2022-09-09T01:30:14;7.22;;;6.53;;
23270;SDS011;11804;51.118;17.058;2022-09-09T01:32:44;9.25;;;6.92;;
23270;SDS011;11804;51.118;17.058;2022-09-09T01:38:10;7.47;;;6.78;;
23270;SDS011;11804;51.118;17.058;2022-09-09T01:40:38;10.08;;;6.55;;
23270;SDS011;11804;51.118;17.058;2022-09-09T01:43:06;8.43;;;7.10;;
23270;SDS011;11804;51.118;17.058;2022-09-09T01:45:33;8.00;;;7.30;;
23270;SDS011;11804;51.118;17.058;2022-09-09T01:48:02;9.30;;;7.03;;
23270;SDS011;11804;51.118;17.058;2022-09-09T01:50:30;7.60;;;6.70;;
23270;SDS011;11804;51.118;17.058;2022-09-09T01:52:59;8.25;;;7.35;;
23270;SDS011;11804;51.118;17.058;2022-09-09T01:55:29;7.50;;;6.90;;
23270;SDS011;11804;51.118;17.058;2022-09-09T01:58:21;10.35;;;7.47;;
23270;SDS011;11804;51.118;17.058;2022-09-09T02:01:02;7.58;;;6.87;;
23270;SDS011;11804;51.118;17.058;2022-09-09T02:03:31;9.98;;;7.47;;
23270;SDS011;11804;51.118;17.058;2022-09-09T02:08:49;8.68;;;7.87;;
23270;SDS011;11804;51.118;17.058;2022-09-09T02:11:20;9.03;;;7.97;;
23270;SDS011;11804;51.118;17.058;2022-09-09T02:14:55;14.68;;;7.87;;
23270;SDS011;11804;51.118;17.058;2022-09-09T02:16:39;9.35;;;8.10;;
23270;SDS011;11804;51.118;17.058;2022-09-09T02:19:14;8.85;;;8.00;;
23270;SDS011;11804;51.118;17.058;2022-09-09T02:21:53;10.80;;;8.53;;
23270;SDS011;11804;51.118;17.058;2022-09-09T02:24:23;8.65;;;7.45;;
23270;SDS011;11804;51.118;17.058;2022-09-09T02:26:53;9.20;;;7.87;;
23270;SDS011;11804;51.118;17.058;2022-09-09T02:29:24;8.85;;;8.00;;
23270;SDS011;11804;51.118;17.058;2022-09-09T02:31:53;9.03;;;7.87;;
23270;SDS011;11804;51.118;17.058;2022-09-09T02:34:24;11.03;;;8.73;;
23270;SDS011;11804;51.118;17.058;2022-09-09T02:36:53;9.18;;;8.38;;
23270;SDS011;11804;51.118;17.058;2022-09-09T02:39:23;11.40;;;8.63;;
23270;SDS011;11804;51.118;17.058;2022-09-09T02:41:51;9.75;;;8.60;;
23270;SDS011;11804;51.118;17.058;2022-09-09T02:44:19;9.65;;;8.75;;
23270;SDS011;11804;51.118;17.058;2022-09-09T02:52:13;10.68;;;9.70;;
23270;SDS011;11804;51.118;17.058;2022-09-09T02:54:41;10.70;;;9.70;;
23270;SDS011;11804;51.118;17.058;2022-09-09T02:59:45;10.65;;;9.73;;
23270;SDS011;11804;51.118;17.058;2022-09-09T03:02:14;10.53;;;9.53;;
23270;SDS011;11804;51.118;17.058;2022-09-09T03:04:42;10.23;;;9.25;;
23270;SDS011;11804;51.118;17.058;2022-09-09T03:07:10;10.08;;;8.68;;
23270;SDS011;11804;51.118;17.058;2022-09-09T03:09:40;12.20;;;9.10;;
23270;SDS011;11804;51.118;17.058;2022-09-09T03:12:08;11.28;;;9.18;;
23270;SDS011;11804;51.118;17.058;2022-09-09T03:14:38;10.43;;;9.30;;
23270;SDS011;11804;51.118;17.058;2022-09-09T03:17:05;10.68;;;9.58;;
23270;SDS011;11804;51.118;17.058;2022-09-09T03:19:35;10.15;;;9.15;;
23270;SDS011;11804;51.118;17.058;2022-09-09T03:22:03;11.03;;;10.03;;
23270;SDS011;11804;51.118;17.058;2022-09-09T03:24:31;11.10;;;10.00;;
23270;SDS011;11804;51.118;17.058;2022-09-09T03:26:58;11.10;;;10.03;;
23270;SDS011;11804;51.118;17.058;2022-09-09T03:29:26;10.82;;;9.53;;
23270;SDS011;11804;51.118;17.058;2022-09-09T03:31:53;11.03;;;9.83;;
23270;SDS011;11804;51.118;17.058;2022-09-09T03:34:23;11.75;;;10.08;;
23270;SDS011;11804;51.118;17.058;2022-09-09T03:36:52;11.25;;;10.15;;
23270;SDS011;11804;51.118;17.058;2022-09-09T03:39:19;14.28;;;9.73;;
23270;SDS011;11804;51.118;17.058;2022-09-09T03:41:46;10.15;;;9.15;;
23270;SDS011;11804;51.118;17.058;2022-09-09T03:44:14;11.43;;;10.23;;
23270;SDS011;11804;51.118;17.058;2022-09-09T03:46:41;10.47;;;9.33;;
23270;SDS011;11804;51.118;17.058;2022-09-09T03:49:09;10.55;;;9.55;;
23270;SDS011;11804;51.118;17.058;2022-09-09T03:51:36;12.53;;;10.90;;
23270;SDS011;11804;51.118;17.058;2022-09-09T03:54:04;10.43;;;9.43;;
23270;SDS011;11804;51.118;17.058;2022-09-09T03:56:34;10.67;;;9.70;;
23270;SDS011;11804;51.118;17.058;2022-09-09T03:59:02;12.30;;;11.03;;
23270;SDS011;11804;51.118;17.058;2022-09-09T04:01:30;13.20;;;9.53;;
23270;SDS011;11804;51.118;17.058;2022-09-09T04:03:58;10.68;;;9.68;;
23270;SDS011;11804;51.118;17.058;2022-09-09T04:06:25;13.20;;;10.15;;
23270;SDS011;11804;51.118;17.058;2022-09-09T04:08:55;11.30;;;10.20;;
23270;SDS011;11804;51.118;17.058;2022-09-09T04:11:23;13.40;;;10.15;;
23270;SDS011;11804;51.118;17.058;2022-09-09T04:13:50;11.43;;;10.33;;
23270;SDS011;11804;51.118;17.058;2022-09-09T04:16:18;9.97;;;8.97;;
23270;SDS011;11804;51.118;17.058;2022-09-09T04:18:45;11.23;;;10.03;;
23270;SDS011;11804;51.118;17.058;2022-09-09T04:21:14;14.83;;;9.93;;
23270;SDS011;11804;51.118;17.058;2022-09-09T04:23:45;13.43;;;9.87;;
23270;SDS011;11804;51.118;17.058;2022-09-09T04:26:12;13.07;;;10.70;;
23270;SDS011;11804;51.118;17.058;2022-09-09T04:28:40;11.67;;;10.43;;
23270;SDS011;11804;51.118;17.058;2022-09-09T04:31:08;16.10;;;10.63;;
23270;SDS011;11804;51.118;17.058;2022-09-09T04:33:38;12.40;;;9.63;;
23270;SDS011;11804;51.118;17.058;2022-09-09T04:36:06;13.13;;;10.00;;
23270;SDS011;11804;51.118;17.058;2022-09-09T04:38:34;12.58;;;10.63;;
23270;SDS011;11804;51.118;17.058;2022-09-09T04:41:02;14.00;;;10.80;;
23270;SDS011;11804;51.118;17.058;2022-09-09T04:43:31;14.73;;;9.87;;
23270;SDS011;11804;51.118;17.058;2022-09-09T04:46:00;10.88;;;9.75;;
23270;SDS011;11804;51.118;17.058;2022-09-09T04:48:29;13.13;;;9.48;;
23270;SDS011;11804;51.118;17.058;2022-09-09T04:51:01;16.00;;;10.00;;
23270;SDS011;11804;51.118;17.058;2022-09-09T04:53:31;12.33;;;9.00;;
23270;SDS011;11804;51.118;17.058;2022-09-09T04:56:08;10.55;;;9.25;;
23270;SDS011;11804;51.118;17.058;2022-09-09T04:58:40;9.83;;;8.83;;
23270;SDS011;11804;51.118;17.058;2022-09-09T05:01:11;13.37;;;10.07;;
23270;SDS011;11804;51.118;17.058;2022-09-09T05:03:47;10.60;;;9.50;;
23270;SDS011;11804;51.118;17.058;2022-09-09T05:06:16;12.23;;;9.60;;
23270;SDS011;11804;51.118;17.058;2022-09-09T05:08:47;19.30;;;10.53;;
23270;SDS011;11804;51.118;17.058;2022-09-09T05:11:20;12.30;;;10.40;;
23270;SDS011;11804;51.118;17.058;2022-09-09T05:13:50;13.10;;;10.60;;
23270;SDS011;11804;51.118;17.058;2022-09-09T05:16:20;12.10;;;10.90;;
23270;SDS011;11804;51.118;17.058;2022-09-09T05:18:49;15.23;;;11.10;;
23270;SDS011;11804;51.118;17.058;2022-09-09T05:21:20;14.87;;;11.47;;
23270;SDS011;11804;51.118;17.058;2022-09-09T05:23:49;13.67;;;11.00;;
23270;SDS011;11804;51.118;17.058;2022-09-09T05:26:18;13.88;;;10.82;;
23270;SDS011;11804;51.118;17.058;2022-09-09T05:28:48;12.90;;;10.97;;
23270;SDS011;11804;51.118;17.058;2022-09-09T05:31:16;13.43;;;9.30;;
23270;SDS011;11804;51.118;17.058;2022-09-09T05:33:46;9.28;;;6.85;;
23270;SDS011;11804;51.118;17.058;2022-09-09T05:36:17;10.35;;;6.12;;
23270;SDS011;11804;51.118;17.058;2022-09-09T05:38:46;8.85;;;5.37;;
23270;SDS011;11804;51.118;17.058;2022-09-09T05:41:15;6.35;;;4.90;;
23270;SDS011;11804;51.118;17.058;2022-09-09T05:43:45;6.17;;;4.12;;
23270;SDS011;11804;51.118;17.058;2022-09-09T05:46:15;6.97;;;3.80;;
23270;SDS011;11804;51.118;17.058;2022-09-09T05:48:48;11.45;;;6.70;;
23270;SDS011;11804;51.118;17.058;2022-09-09T05:51:18;6.53;;;4.70;;
23270;SDS011;11804;51.118;17.058;2022-09-09T05:53:49;8.93;;;4.58;;
23270;SDS011;11804;51.118;17.058;2022-09-09T05:56:21;8.65;;;4.45;;
23270;SDS011;11804;51.118;17.058;2022-09-09T05:58:55;5.85;;;4.78;;
23270;SDS011;11804;51.118;17.058;2022-09-09T06:01:24;6.87;;;4.28;;
23270;SDS011;11804;51.118;17.058;2022-09-09T06:03:57;7.65;;;4.12;;
23270;SDS011;11804;51.118;17.058;2022-09-09T06:06:26;14.60;;;5.47;;
23270;SDS011;11804;51.118;17.058;2022-09-09T06:08:56;13.58;;;5.08;;
23270;SDS011;11804;51.118;17.058;2022-09-09T06:11:27;5.70;;;3.50;;
23270;SDS011;11804;51.118;17.058;2022-09-09T06:14:03;5.08;;;3.33;;
23270;SDS011;11804;51.118;17.058;2022-09-09T06:16:31;9.63;;;4.03;;
23270;SDS011;11804;51.118;17.058;2022-09-09T06:19:00;2.90;;;2.55;;
23270;SDS011;11804;51.118;17.058;2022-09-09T06:21:33;8.40;;;3.37;;
23270;SDS011;11804;51.118;17.058;2022-09-09T06:24:06;5.37;;;2.90;;
23270;SDS011;11804;51.118;17.058;2022-09-09T06:26:37;7.67;;;3.12;;
23270;SDS011;11804;51.118;17.058;2022-09-09T06:29:07;5.12;;;2.98;;
23270;SDS011;11804;51.118;17.058;2022-09-09T06:31:36;7.58;;;3.02;;
23270;SDS011;11804;51.118;17.058;2022-09-09T06:34:06;4.78;;;2.70;;
23270;SDS011;11804;51.118;17.058;2022-09-09T06:36:35;8.08;;;2.58;;
23270;SDS011;11804;51.118;17.058;2022-09-09T06:39:04;6.72;;;2.70;;
23270;SDS011;11804;51.118;17.058;2022-09-09T06:41:33;5.92;;;2.37;;
23270;SDS011;11804;51.118;17.058;2022-09-09T06:44:02;5.17;;;2.55;;
23270;SDS011;11804;51.118;17.058;2022-09-09T06:46:30;8.98;;;2.87;;
23270;SDS011;11804;51.118;17.058;2022-09-09T06:48:59;7.72;;;2.80;;
23270;SDS011;11804;51.118;17.058;2022-09-09T06:51:29;6.03;;;2.52;;
23270;SDS011;11804;51.118;17.058;2022-09-09T06:53:59;5.70;;;3.02;;
23270;SDS011;11804;51.118;17.058;2022-09-09T06:59:02;7.78;;;2.72;;
23270;SDS011;11804;51.118;17.058;2022-09-09T07:01:32;9.75;;;3.00;;
23270;SDS011;11804;51.118;17.058;2022-09-09T07:04:04;5.67;;;2.92;;
23270;SDS011;11804;51.118;17.058;2022-09-09T07:06:34;8.45;;;2.90;;
23270;SDS011;11804;51.118;17.058;2022-09-09T07:09:10;3.62;;;2.55;;
23270;SDS011;11804;51.118;17.058;2022-09-09T07:11:40;5.75;;;2.70;;
23270;SDS011;11804;51.118;17.058;2022-09-09T07:14:10;6.35;;;2.77;;
23270;SDS011;11804;51.118;17.058;2022-09-09T07:16:40;8.93;;;2.85;;
23270;SDS011;11804;51.118;17.058;2022-09-09T07:19:08;6.53;;;2.62;;
23270;SDS011;11804;51.118;17.058;2022-09-09T07:21:37;15.70;;;3.98;;
23270;SDS011;11804;51.118;17.058;2022-09-09T07:24:06;9.35;;;2.80;;
23270;SDS011;11804;51.118;17.058;2022-09-09T07:26:36;17.98;;;10.20;;
23270;SDS011;11804;51.118;17.058;2022-09-09T07:29:05;11.63;;;3.98;;
23270;SDS011;11804;51.118;17.058;2022-09-09T07:31:36;14.07;;;3.10;;
23270;SDS011;11804;51.118;17.058;2022-09-09T07:34:05;6.83;;;2.02;;
23270;SDS011;11804;51.118;17.058;2022-09-09T07:36:35;9.00;;;2.22;;
23270;SDS011;11804;51.118;17.058;2022-09-09T07:39:11;7.75;;;2.50;;
23270;SDS011;11804;51.118;17.058;2022-09-09T07:41:41;6.85;;;2.37;;
23270;SDS011;11804;51.118;17.058;2022-09-09T07:44:14;8.03;;;2.40;;
23270;SDS011;11804;51.118;17.058;2022-09-09T07:46:46;9.15;;;2.45;;
23270;SDS011;11804;51.118;17.058;2022-09-09T07:49:15;9.03;;;1.90;;
23270;SDS011;11804;51.118;17.058;2022-09-09T07:51:45;9.43;;;2.58;;
23270;SDS011;11804;51.118;17.058;2022-09-09T07:54:15;7.60;;;1.98;;
23270;SDS011;11804;51.118;17.058;2022-09-09T07:56:50;13.10;;;2.70;;
23270;SDS011;11804;51.118;17.058;2022-09-09T07:59:18;8.03;;;2.45;;
23270;SDS011;11804;51.118;17.058;2022-09-09T08:01:48;11.65;;;2.80;;
23270;SDS011;11804;51.118;17.058;2022-09-09T08:04:18;7.75;;;2.22;;
23270;SDS011;11804;51.118;17.058;2022-09-09T08:06:56;7.03;;;2.05;;
23270;SDS011;11804;51.118;17.058;2022-09-09T08:09:20;5.60;;;1.75;;
23270;SDS011;11804;51.118;17.058;2022-09-09T08:11:51;7.30;;;1.60;;
23270;SDS011;11804;51.118;17.058;2022-09-09T08:14:21;10.05;;;1.70;;
23270;SDS011;11804;51.118;17.058;2022-09-09T08:16:49;5.67;;;1.32;;
23270;SDS011;11804;51.118;17.058;2022-09-09T08:19:18;11.08;;;2.15;;
23270;SDS011;11804;51.118;17.058;2022-09-09T08:21:46;10.00;;;1.90;;
23270;SDS011;11804;51.118;17.058;2022-09-09T08:24:14;5.95;;;2.00;;
23270;SDS011;11804;51.118;17.058;2022-09-09T08:26:43;6.08;;;1.82;;
23270;SDS011;11804;51.118;17.058;2022-09-09T08:29:13;7.17;;;1.70;;
23270;SDS011;11804;51.118;17.058;2022-09-09T08:31:41;12.05;;;2.20;;
23270;SDS011;11804;51.118;17.058;2022-09-09T08:34:13;10.50;;;2.70;;
23270;SDS011;11804;51.118;17.058;2022-09-09T08:36:42;7.20;;;1.55;;
23270;SDS011;11804;51.118;17.058;2022-09-09T08:39:11;2.02;;;1.10;;
23270;SDS011;11804;51.118;17.058;2022-09-09T08:55:47;4.33;;;1.40;;
23270;SDS011;11804;51.118;17.058;2022-09-09T08:58:17;3.08;;;1.10;;
23270;SDS011;11804;51.118;17.058;2022-09-09T09:03:28;5.15;;;2.37;;
23270;SDS011;11804;51.118;17.058;2022-09-09T09:06:15;5.33;;;1.62;;
23270;SDS011;11804;51.118;17.058;2022-09-09T09:12:00;8.63;;;2.20;;
23270;SDS011;11804;51.118;17.058;2022-09-09T09:14:30;4.92;;;1.45;;
23270;SDS011;11804;51.118;17.058;2022-09-09T09:17:02;7.37;;;1.42;;
23270;SDS011;11804;51.118;17.058;2022-09-09T09:19:32;5.90;;;1.60;;
23270;SDS011;11804;51.118;17.058;2022-09-09T09:25:02;12.90;;;2.30;;
23270;SDS011;11804;51.118;17.058;2022-09-09T09:30:17;13.68;;;3.20;;
23270;SDS011;11804;51.118;17.058;2022-09-09T09:32:54;63.17;;;6.25;;
23270;SDS011;11804;51.118;17.058;2022-09-09T09:35:25;7.37;;;1.65;;
23270;SDS011;11804;51.118;17.058;2022-09-09T09:37:53;8.30;;;1.77;;
23270;SDS011;11804;51.118;17.058;2022-09-09T09:40:22;5.97;;;1.60;;
23270;SDS011;11804;51.118;17.058;2022-09-09T09:42:54;10.23;;;2.08;;
23270;SDS011;11804;51.118;17.058;2022-09-09T09:45:27;4.25;;;1.67;;
23270;SDS011;11804;51.118;17.058;2022-09-09T09:48:02;6.83;;;1.87;;
23270;SDS011;11804;51.118;17.058;2022-09-09T09:50:34;10.08;;;2.10;;
23270;SDS011;11804;51.118;17.058;2022-09-09T09:53:04;4.90;;;1.98;;
23270;SDS011;11804;51.118;17.058;2022-09-09T09:55:33;4.53;;;1.57;;
23270;SDS011;11804;51.118;17.058;2022-09-09T09:58:13;4.28;;;1.62;;
23270;SDS011;11804;51.118;17.058;2022-09-09T10:00:33;3.95;;;1.57;;
23270;SDS011;11804;51.118;17.058;2022-09-09T10:03:00;9.00;;;2.10;;
23270;SDS011;11804;51.118;17.058;2022-09-09T10:05:30;5.00;;;1.52;;
23270;SDS011;11804;51.118;17.058;2022-09-09T10:08:10;5.53;;;1.60;;
23270;SDS011;11804;51.118;17.058;2022-09-09T10:10:46;6.20;;;1.77;;
23270;SDS011;11804;51.118;17.058;2022-09-09T10:13:18;4.00;;;1.72;;
23270;SDS011;11804;51.118;17.058;2022-09-09T10:15:58;5.37;;;1.40;;
23270;SDS011;11804;51.118;17.058;2022-09-09T10:21:12;7.28;;;2.08;;
23270;SDS011;11804;51.118;17.058;2022-09-09T10:31:57;8.25;;;1.60;;
23270;SDS011;11804;51.118;17.058;2022-09-09T10:37:35;7.03;;;1.60;;
23270;SDS011;11804;51.118;17.058;2022-09-09T10:42:59;3.87;;;1.37;;
23270;SDS011;11804;51.118;17.058;2022-09-09T10:45:36;6.45;;;1.35;;
23270;SDS011;11804;51.118;17.058;2022-09-09T10:48:05;6.25;;;1.75;;
23270;SDS011;11804;51.118;17.058;2022-09-09T10:50:47;6.58;;;1.72;;
23270;SDS011;11804;51.118;17.058;2022-09-09T10:53:24;6.37;;;2.00;;
23270;SDS011;11804;51.118;17.058;2022-09-09T10:56:09;5.00;;;1.42;;
23270;SDS011;11804;51.118;17.058;2022-09-09T10:58:40;7.40;;;1.57;;
23270;SDS011;11804;51.118;17.058;2022-09-09T11:01:22;5.20;;;1.75;;
23270;SDS011;11804;51.118;17.058;2022-09-09T11:03:56;12.18;;;2.58;;
23270;SDS011;11804;51.118;17.058;2022-09-09T11:06:27;4.28;;;1.77;;
23270;SDS011;11804;51.118;17.058;2022-09-09T11:08:55;5.15;;;1.57;;
23270;SDS011;11804;51.118;17.058;2022-09-09T11:11:27;5.22;;;1.57;;
23270;SDS011;11804;51.118;17.058;2022-09-09T11:13:59;15.28;;;2.42;;
23270;SDS011;11804;51.118;17.058;2022-09-09T11:16:52;3.27;;;1.22;;
23270;SDS011;11804;51.118;17.058;2022-09-09T11:19:27;4.37;;;1.60;;
23270;SDS011;11804;51.118;17.058;2022-09-09T11:21:55;3.83;;;1.62;;
23270;SDS011;11804;51.118;17.058;2022-09-09T11:24:35;9.25;;;2.08;;
23270;SDS011;11804;51.118;17.058;2022-09-09T11:29:50;3.70;;;1.47;;
23270;SDS011;11804;51.118;17.058;2022-09-09T11:32:29;3.80;;;1.22;;
23270;SDS011;11804;51.118;17.058;2022-09-09T11:35:30;2.72;;;1.10;;
23270;SDS011;11804;51.118;17.058;2022-09-09T11:40:58;5.03;;;1.37;;
23270;SDS011;11804;51.118;17.058;2022-09-09T11:46:00;6.65;;;1.90;;
23270;SDS011;11804;51.118;17.058;2022-09-09T11:48:36;2.65;;;1.50;;
23270;SDS011;11804;51.118;17.058;2022-09-09T11:53:59;3.35;;;1.22;;
23270;SDS011;11804;51.118;17.058;2022-09-09T11:56:31;4.37;;;1.45;;
23270;SDS011;11804;51.118;17.058;2022-09-09T11:59:05;5.17;;;1.90;;
23270;SDS011;11804;51.118;17.058;2022-09-09T12:01:36;2.77;;;1.00;;
23270;SDS011;11804;51.118;17.058;2022-09-09T12:04:15;3.67;;;2.27;;
23270;SDS011;11804;51.118;17.058;2022-09-09T12:06:52;3.35;;;1.50;;
23270;SDS011;11804;51.118;17.058;2022-09-09T12:12:05;3.92;;;1.60;;
23270;SDS011;11804;51.118;17.058;2022-09-09T12:14:38;3.70;;;1.40;;
23270;SDS011;11804;51.118;17.058;2022-09-09T12:17:17;3.37;;;1.30;;
23270;SDS011;11804;51.118;17.058;2022-09-09T12:19:44;5.53;;;1.65;;
23270;SDS011;11804;51.118;17.058;2022-09-09T12:25:16;7.42;;;1.55;;
23270;SDS011;11804;51.118;17.058;2022-09-09T12:27:26;6.58;;;2.37;;
23270;SDS011;11804;51.118;17.058;2022-09-09T12:29:56;6.90;;;2.00;;
23270;SDS011;11804;51.118;17.058;2022-09-09T12:32:28;3.85;;;1.32;;
23270;SDS011;11804;51.118;17.058;2022-09-09T12:34:58;7.85;;;2.08;;
23270;SDS011;11804;51.118;17.058;2022-09-09T12:40:05;3.02;;;1.40;;
23270;SDS011;11804;51.118;17.058;2022-09-09T12:42:39;5.72;;;1.45;;
23270;SDS011;11804;51.118;17.058;2022-09-09T12:45:15;4.65;;;1.47;;
23270;SDS011;11804;51.118;17.058;2022-09-09T12:47:37;5.15;;;1.45;;
23270;SDS011;11804;51.118;17.058;2022-09-09T12:50:20;2.02;;;1.10;;
23270;SDS011;11804;51.118;17.058;2022-09-09T12:52:51;3.27;;;1.40;;
23270;SDS011;11804;51.118;17.058;2022-09-09T12:55:21;5.33;;;1.95;;
23270;SDS011;11804;51.118;17.058;2022-09-09T12:57:51;4.55;;;1.47;;
23270;SDS011;11804;51.118;17.058;2022-09-09T13:00:21;6.87;;;1.07;;
23270;SDS011;11804;51.118;17.058;2022-09-09T13:02:54;4.00;;;1.22;;
23270;SDS011;11804;51.118;17.058;2022-09-09T13:05:31;7.20;;;4.35;;
23270;SDS011;11804;51.118;17.058;2022-09-09T13:08:05;11.83;;;1.85;;
23270;SDS011;11804;51.118;17.058;2022-09-09T13:10:38;4.97;;;1.50;;
23270;SDS011;11804;51.118;17.058;2022-09-09T13:13:22;1.20;;;1.10;;
23270;SDS011;11804;51.118;17.058;2022-09-09T13:15:55;2.12;;;1.10;;
23270;SDS011;11804;51.118;17.058;2022-09-09T13:18:27;1.98;;;1.10;;
23270;SDS011;11804;51.118;17.058;2022-09-09T13:20:55;2.52;;;1.10;;
23270;SDS011;11804;51.118;17.058;2022-09-09T13:23:30;2.40;;;1.30;;
23270;SDS011;11804;51.118;17.058;2022-09-09T13:26:04;2.90;;;1.40;;
23270;SDS011;11804;51.118;17.058;2022-09-09T13:28:28;3.08;;;1.05;;
23270;SDS011;11804;51.118;17.058;2022-09-09T13:30:57;4.17;;;1.22;;
23270;SDS011;11804;51.118;17.058;2022-09-09T13:33:30;2.60;;;1.15;;
23270;SDS011;11804;51.118;17.058;2022-09-09T13:36:03;5.45;;;1.77;;
23270;SDS011;11804;51.118;17.058;2022-09-09T13:38:35;4.70;;;1.50;;
23270;SDS011;11804;51.118;17.058;2022-09-09T13:41:22;5.42;;;1.92;;
23270;SDS011;11804;51.118;17.058;2022-09-09T13:43:57;6.00;;;1.55;;
23270;SDS011;11804;51.118;17.058;2022-09-09T13:46:34;5.42;;;1.50;;
23270;SDS011;11804;51.118;17.058;2022-09-09T13:51:43;3.25;;;1.50;;
23270;SDS011;11804;51.118;17.058;2022-09-09T13:54:14;1.25;;;1.00;;
23270;SDS011;11804;51.118;17.058;2022-09-09T13:56:43;3.95;;;1.47;;
23270;SDS011;11804;51.118;17.058;2022-09-09T13:59:15;8.38;;;1.95;;
23270;SDS011;11804;51.118;17.058;2022-09-09T14:01:45;3.95;;;1.30;;
23270;SDS011;11804;51.118;17.058;2022-09-09T14:04:18;4.33;;;1.67;;
23270;SDS011;11804;51.118;17.058;2022-09-09T14:06:49;2.92;;;1.25;;
23270;SDS011;11804;51.118;17.058;2022-09-09T14:09:17;3.12;;;1.30;;
23270;SDS011;11804;51.118;17.058;2022-09-09T14:11:45;6.15;;;1.30;;
23270;SDS011;11804;51.118;17.058;2022-09-09T14:14:13;5.20;;;1.70;;
23270;SDS011;11804;51.118;17.058;2022-09-09T14:16:41;4.00;;;1.72;;
23270;SDS011;11804;51.118;17.058;2022-09-09T14:19:08;6.42;;;1.60;;
23270;SDS011;11804;51.118;17.058;2022-09-09T14:21:36;4.20;;;1.77;;
23270;SDS011;11804;51.118;17.058;2022-09-09T14:24:04;9.08;;;2.08;;
23270;SDS011;11804;51.118;17.058;2022-09-09T14:26:32;3.65;;;1.82;;
23270;SDS011;11804;51.118;17.058;2022-09-09T14:28:59;2.87;;;1.50;;
23270;SDS011;11804;51.118;17.058;2022-09-09T14:31:28;2.92;;;1.30;;
23270;SDS011;11804;51.118;17.058;2022-09-09T14:33:56;4.47;;;1.55;;
23270;SDS011;11804;51.118;17.058;2022-09-09T14:36:24;2.17;;;1.57;;
23270;SDS011;11804;51.118;17.058;2022-09-09T14:38:52;5.22;;;1.40;;
23270;SDS011;11804;51.118;17.058;2022-09-09T14:41:19;6.30;;;1.52;;
23270;SDS011;11804;51.118;17.058;2022-09-09T14:43:48;2.20;;;1.40;;
23270;SDS011;11804;51.118;17.058;2022-09-09T14:46:16;3.47;;;1.70;;
23270;SDS011;11804;51.118;17.058;2022-09-09T14:48:46;5.35;;;1.60;;
23270;SDS011;11804;51.118;17.058;2022-09-09T14:51:18;4.80;;;1.57;;
23270;SDS011;11804;51.118;17.058;2022-09-09T14:53:52;10.18;;;2.02;;
23270;SDS011;11804;51.118;17.058;2022-09-09T14:56:23;6.20;;;1.52;;
23270;SDS011;11804;51.118;17.058;2022-09-09T14:58:53;4.60;;;1.75;;
23270;SDS011;11804;51.118;17.058;2022-09-09T15:01:22;6.12;;;1.45;;
23270;SDS011;11804;51.118;17.058;2022-09-09T15:03:56;3.80;;;1.50;;
23270;SDS011;11804;51.118;17.058;2022-09-09T15:06:26;4.25;;;1.52;;
23270;SDS011;11804;51.118;17.058;2022-09-09T15:08:55;7.80;;;1.75;;
23270;SDS011;11804;51.118;17.058;2022-09-09T15:11:26;3.67;;;1.77;;
23270;SDS011;11804;51.118;17.058;2022-09-09T15:13:56;2.62;;;1.40;;
23270;SDS011;11804;51.118;17.058;2022-09-09T15:16:26;6.22;;;1.90;;
23270;SDS011;11804;51.118;17.058;2022-09-09T15:18:55;10.63;;;1.98;;
23270;SDS011;11804;51.118;17.058;2022-09-09T15:21:28;4.65;;;1.98;;
23270;SDS011;11804;51.118;17.058;2022-09-09T15:23:58;3.95;;;1.90;;
23270;SDS011;11804;51.118;17.058;2022-09-09T15:26:26;1.85;;;1.55;;
23270;SDS011;11804;51.118;17.058;2022-09-09T15:28:55;5.35;;;2.10;;
23270;SDS011;11804;51.118;17.058;2022-09-09T15:31:26;7.35;;;2.10;;
23270;SDS011;11804;51.118;17.058;2022-09-09T15:33:57;5.80;;;1.95;;
23270;SDS011;11804;51.118;17.058;2022-09-09T15:39:03;3.12;;;1.72;;
23270;SDS011;11804;51.118;17.058;2022-09-09T15:41:32;5.47;;;1.82;;
23270;SDS011;11804;51.118;17.058;2022-09-09T15:44:00;5.70;;;2.10;;
23270;SDS011;11804;51.118;17.058;2022-09-09T15:49:06;5.75;;;2.08;;
23270;SDS011;11804;51.118;17.058;2022-09-09T15:51:45;7.50;;;1.98;;
23270;SDS011;11804;51.118;17.058;2022-09-09T15:54:16;5.83;;;2.27;;
23270;SDS011;11804;51.118;17.058;2022-09-09T15:56:46;3.98;;;1.80;;
23270;SDS011;11804;51.118;17.058;2022-09-09T15:59:16;7.65;;;2.60;;
23270;SDS011;11804;51.118;17.058;2022-09-09T16:01:44;5.37;;;2.58;;
23270;SDS011;11804;51.118;17.058;2022-09-09T16:04:11;7.80;;;2.17;;
23270;SDS011;11804;51.118;17.058;2022-09-09T16:06:39;5.10;;;2.00;;
23270;SDS011;11804;51.118;17.058;2022-09-09T16:09:07;2.37;;;1.90;;
23270;SDS011;11804;51.118;17.058;2022-09-09T16:11:36;3.27;;;1.67;;
23270;SDS011;11804;51.118;17.058;2022-09-09T16:14:05;4.50;;;1.82;;
23270;SDS011;11804;51.118;17.058;2022-09-09T16:16:33;7.67;;;2.00;;
23270;SDS011;11804;51.118;17.058;2022-09-09T16:19:10;8.55;;;1.90;;
23270;SDS011;11804;51.118;17.058;2022-09-09T16:21:36;6.67;;;1.70;;
23270;SDS011;11804;51.118;17.058;2022-09-09T16:24:06;6.47;;;2.10;;
23270;SDS011;11804;51.118;17.058;2022-09-09T16:26:36;4.58;;;2.30;;
23270;SDS011;11804;51.118;17.058;2022-09-09T16:29:05;6.97;;;2.40;;
23270;SDS011;11804;51.118;17.058;2022-09-09T16:31:34;4.67;;;2.27;;
23270;SDS011;11804;51.118;17.058;2022-09-09T16:34:02;5.42;;;1.85;;
23270;SDS011;11804;51.118;17.058;2022-09-09T16:36:31;3.27;;;2.12;;
23270;SDS011;11804;51.118;17.058;2022-09-09T16:39:01;5.85;;;2.12;;
23270;SDS011;11804;51.118;17.058;2022-09-09T16:41:35;4.80;;;1.90;;
23270;SDS011;11804;51.118;17.058;2022-09-09T16:44:05;5.62;;;2.02;;
23270;SDS011;11804;51.118;17.058;2022-09-09T16:46:34;4.58;;;2.45;;
23270;SDS011;11804;51.118;17.058;2022-09-09T16:49:05;6.37;;;2.25;;